CheckWX is a tool to help pilots better visualize weather data.  It is not intended as a substitute for an official pre-flight weather briefing.

20:29:42 UTC

KENV TAF
Wendover Airport
Wendover, Utah, USA
KENV 251720Z 2518/2618 11009KT P6SM BKN200 FM252200 23014G22KT P6SM SCT100 BKN150 FM260200 29011G17KT P6SM SCT100 BKN150 FM260400 VRB06KT P6SM FEW100 BKN150

Jun-25@
18:00 UTC

Jun-25 @ 18:00 UTC

Jun-25@
22:00 UTC

Jun-25 @ 22:00 UTC

KENV 251720Z 2518/2618 11009KT P6SM BKN200
Wind
  • 110° at 9 KTS
Cloud Levels
  • Broken at 20,000' AGL

Jun-25@
22:00 UTC

Jun-25 @ 22:00 UTC

Jun-26@
02:00 UTC

Jun-26 @ 02:00 UTC

FM252200 23014G22KT P6SM SCT100 BKN150

From

From Standard forecast or significant change

Wind
  • 230° at 14 KTS
  • {Gusting to 22 KTS
Cloud Levels
  • Scattered at 10,000' AGL
  • Broken at 15,000' AGL

Jun-26@
02:00 UTC

Jun-26 @ 02:00 UTC

Jun-26@
04:00 UTC

Jun-26 @ 04:00 UTC

FM260200 29011G17KT P6SM SCT100 BKN150

From

From Standard forecast or significant change

Wind
  • 290° at 11 KTS
  • {Gusting to 17 KTS
Cloud Levels
  • Scattered at 10,000' AGL
  • Broken at 15,000' AGL

Jun-26@
04:00 UTC

Jun-26 @ 04:00 UTC

Jun-26@
18:00 UTC

Jun-26 @ 18:00 UTC

FM260400 VRB06KT P6SM FEW100 BKN150

From

From Standard forecast or significant change

Wind
  • Variable at 6 KTS
Cloud Levels
  • Few at 10,000' AGL
  • Broken at 15,000' AGL